createdAt,value
2023-02-22T00:04:44.277Z,23.35
2023-02-22T00:09:47.129Z,16.33
2023-02-22T00:14:51.498Z,18.63
2023-02-22T00:19:57.255Z,17.23
2023-02-22T00:25:12.935Z,17.23
2023-02-22T00:30:45.342Z,15.50
2023-02-22T00:35:48.313Z,15.38
2023-02-22T00:40:51.185Z,15.70
2023-02-22T00:45:54.172Z,17.05
2023-02-22T00:50:57.026Z,15.38
2023-02-22T00:56:11.660Z,20.23
2023-02-22T01:01:14.853Z,17.55
2023-02-22T01:06:40.828Z,15.75
2023-02-22T01:11:43.737Z,18.30
2023-02-22T01:16:46.660Z,14.68
2023-02-22T01:21:50.945Z,18.98
2023-02-22T01:26:53.897Z,18.00
2023-02-22T01:33:12.877Z,19.23
2023-02-22T01:38:15.475Z,14.02
2023-02-22T01:45:08.946Z,18.10
2023-02-22T01:50:12.259Z,13.80
2023-02-22T01:55:15.895Z,16.17
2023-02-22T02:00:21.531Z,16.77
2023-02-22T02:06:15.839Z,18.00
2023-02-22T02:18:16.060Z,20.23
2023-02-22T02:23:41.213Z,21.38
2023-02-22T02:29:40.301Z,24.25
2023-02-22T02:36:09.308Z,19.58
2023-02-22T02:42:11.220Z,21.70
2023-02-22T02:48:11.524Z,18.00
2023-02-22T03:06:13.250Z,20.55
2023-02-22T03:18:22.099Z,22.33
2023-02-22T03:24:13.800Z,18.75
2023-02-22T03:30:21.677Z,24.38
2023-02-22T03:37:11.198Z,22.50
2023-02-22T03:48:54.338Z,17.90
2023-02-22T03:54:16.525Z,17.15
2023-02-22T04:00:14.550Z,17.10
2023-02-22T04:05:20.025Z,18.98
2023-02-22T04:11:13.135Z,20.08
2023-02-22T04:27:11.342Z,21.60
2023-02-22T04:32:14.728Z,22.25
2023-02-22T04:37:17.735Z,22.27
2023-02-22T04:42:20.319Z,24.13
2023-02-22T04:47:24.293Z,16.80
2023-02-22T04:53:11.250Z,25.40
2023-02-22T04:58:15.385Z,22.23
2023-02-22T05:03:19.565Z,22.27
2023-02-22T05:08:22.879Z,26.45
2023-02-22T05:13:42.384Z,21.20
2023-02-22T05:24:41.280Z,23.17
2023-02-22T05:35:13.345Z,21.55
2023-02-22T05:40:20.996Z,20.10
2023-02-22T05:45:43.613Z,28.60
2023-02-22T05:51:12.382Z,23.13
2023-02-22T05:56:20.810Z,21.65
2023-02-22T06:01:25.350Z,22.15
2023-02-22T06:07:12.635Z,20.45
2023-02-22T06:17:20.596Z,18.40
2023-02-22T06:22:23.395Z,20.77
2023-02-22T06:27:26.072Z,16.65
2023-02-22T06:33:14.926Z,18.42
2023-02-22T06:38:31.876Z,19.17
2023-02-22T06:43:43.874Z,18.13
2023-02-22T06:48:54.130Z,14.45
2023-02-22T06:54:11.760Z,18.85
2023-02-22T06:59:14.324Z,21.27
2023-02-22T07:04:17.210Z,16.85
2023-02-22T07:09:20.032Z,17.63
2023-02-22T07:14:23.310Z,18.92
2023-02-22T07:19:25.885Z,19.17
2023-02-22T07:25:11.562Z,16.70
2023-02-22T07:30:25.802Z,19.02
2023-02-22T07:36:12.351Z,25.00
2023-02-22T07:41:15.294Z,18.83
2023-02-22T07:46:19.346Z,17.17
2023-02-22T07:51:22.003Z,23.47
2023-02-22T07:56:24.539Z,16.55
2023-02-22T08:01:41.614Z,15.95
2023-02-22T08:06:48.166Z,21.98
2023-02-22T08:12:16.546Z,20.77
2023-02-22T08:17:19.142Z,19.13
2023-02-22T08:22:22.121Z,24.35
2023-02-22T08:27:27.205Z,26.70
2023-02-22T08:32:33.202Z,22.98
2023-02-22T08:37:44.314Z,21.67
2023-02-22T08:42:47.244Z,19.55
2023-02-22T08:47:50.217Z,23.15
2023-02-22T08:53:09.698Z,21.33
2023-02-22T08:58:12.823Z,15.13
2023-02-22T09:03:16.276Z,18.63
2023-02-22T09:08:19.093Z,18.13
2023-02-22T09:13:21.694Z,15.70
2023-02-22T09:18:26.873Z,24.17
2023-02-22T09:23:40.413Z,17.50
2023-02-22T09:28:43.088Z,19.92
2023-02-22T09:33:47.446Z,22.75
2023-02-22T09:38:50.441Z,24.27
2023-02-22T09:44:24.244Z,21.98
2023-02-22T09:49:47.418Z,19.95
2023-02-22T09:55:27.698Z,13.15
2023-02-22T10:00:43.952Z,17.10
2023-02-22T10:06:43.976Z,19.35
2023-02-22T10:12:43.292Z,17.80
2023-02-22T10:18:48.789Z,19.77
2023-02-22T10:24:47.728Z,21.13
2023-02-22T10:30:26.298Z,18.30
2023-02-22T10:35:46.759Z,29.92
2023-02-22T10:41:10.589Z,27.40
2023-02-22T10:46:25.552Z,19.27
2023-02-22T10:51:32.996Z,22.08
2023-02-22T10:56:52.447Z,23.42
2023-02-22T11:02:01.935Z,21.77
2023-02-22T11:07:20.411Z,14.88
2023-02-22T11:12:41.400Z,18.83
2023-02-22T11:17:51.777Z,22.73
2023-02-22T11:23:05.469Z,20.98
2023-02-22T11:28:33.029Z,17.40
2023-02-22T11:33:40.787Z,20.95
2023-02-22T11:38:59.346Z,16.55
2023-02-22T11:44:35.438Z,20.48
2023-02-22T11:49:45.801Z,22.52
2023-02-22T11:55:46.794Z,22.67
2023-02-22T12:01:23.286Z,19.63
2023-02-22T12:06:59.465Z,16.48
2023-02-22T12:12:44.104Z,14.93
2023-02-22T12:18:42.923Z,20.27
2023-02-22T12:24:10.815Z,50.40
2023-02-22T12:29:43.777Z,36.13
2023-02-22T12:35:02.663Z,18.77
2023-02-22T12:40:54.444Z,15.65
2023-02-22T12:46:20.547Z,20.25
2023-02-22T12:51:49.863Z,15.90
2023-02-22T12:57:13.759Z,19.80
2023-02-22T13:02:44.784Z,24.08
2023-02-22T13:08:00.130Z,19.10
2023-02-22T13:13:55.118Z,18.52
2023-02-22T13:19:14.141Z,17.90
2023-02-22T13:24:58.528Z,18.70
2023-02-22T13:30:41.960Z,22.60
2023-02-22T13:36:18.307Z,18.05
2023-02-22T13:41:56.366Z,17.58
2023-02-22T13:47:24.853Z,23.33
2023-02-22T13:52:44.887Z,18.10
2023-02-22T13:58:15.485Z,26.02
2023-02-22T14:04:17.945Z,18.27
2023-02-22T14:10:56.251Z,17.65
2023-02-22T14:16:35.928Z,17.02
2023-02-22T14:23:11.991Z,20.88
2023-02-22T14:29:13.596Z,20.80
2023-02-22T14:34:42.340Z,53.92
2023-02-22T14:40:02.230Z,17.88
2023-02-22T14:45:55.934Z,19.67
2023-02-22T14:51:22.342Z,19.15
2023-02-22T15:02:28.386Z,18.23
2023-02-22T15:07:42.055Z,26.27
2023-02-22T15:13:13.002Z,21.38
2023-02-22T15:18:46.335Z,31.70
2023-02-22T15:24:09.033Z,27.30
2023-02-22T15:29:53.921Z,35.00
2023-02-22T15:35:19.609Z,36.80
2023-02-22T15:40:22.713Z,46.03
2023-02-22T15:45:42.902Z,40.20
2023-02-22T15:51:13.952Z,45.70
2023-02-22T15:56:23.982Z,43.95
2023-02-22T16:01:27.276Z,53.10
2023-02-22T16:06:44.631Z,53.33
2023-02-22T16:12:13.898Z,56.67
2023-02-22T16:17:33.882Z,71.68
2023-02-22T16:22:59.434Z,69.03
2023-02-22T16:28:23.617Z,77.32
2023-02-22T16:33:30.149Z,75.05
2023-02-22T16:38:39.007Z,70.05
2023-02-22T16:43:47.153Z,68.00
2023-02-22T16:48:50.002Z,54.15
2023-02-22T16:53:56.334Z,52.97
2023-02-22T16:59:07.272Z,82.65
2023-02-22T17:04:24.810Z,65.90
2023-02-22T17:09:27.616Z,61.70
2023-02-22T17:14:34.656Z,58.67
2023-02-22T17:19:37.747Z,74.23
2023-02-22T17:24:40.369Z,68.67
2023-02-22T17:29:45.074Z,105.27
2023-02-22T17:34:47.673Z,78.20
2023-02-22T17:39:50.262Z,82.33
2023-02-22T17:44:52.895Z,110.83
2023-02-22T17:49:57.977Z,109.37
2023-02-22T17:55:00.777Z,112.57
2023-02-22T18:00:12.504Z,147.53
2023-02-22T18:05:19.952Z,173.63
2023-02-22T18:10:22.525Z,192.00
2023-02-22T18:15:28.494Z,193.03
2023-02-22T18:20:31.365Z,220.37
2023-02-22T18:25:35.984Z,205.83
2023-02-22T18:30:41.395Z,244.70
2023-02-22T18:35:52.301Z,193.47
2023-02-22T18:41:06.709Z,231.03
2023-02-22T18:46:18.949Z,236.13
2023-02-22T18:51:23.009Z,260.00
2023-02-22T18:56:30.251Z,278.98
2023-02-22T19:01:38.736Z,282.60
2023-02-22T19:06:45.383Z,268.67
2023-02-22T19:11:50.122Z,257.63
2023-02-22T19:16:53.427Z,258.93
2023-02-22T19:21:58.719Z,256.63
2023-02-22T19:27:27.091Z,263.97
2023-02-22T19:32:47.325Z,267.88
2023-02-22T19:38:14.700Z,260.57
2023-02-22T19:43:24.642Z,202.77
2023-02-22T19:48:36.655Z,203.40
2023-02-22T19:53:45.829Z,176.00
2023-02-22T19:58:51.099Z,163.73
2023-02-22T20:04:09.770Z,165.83
2023-02-22T20:09:18.175Z,156.60
2023-02-22T20:14:28.483Z,153.97
2023-02-22T20:19:36.577Z,141.63
2023-02-22T20:24:44.512Z,149.83
2023-02-22T20:29:47.054Z,152.97
2023-02-22T20:34:50.218Z,136.17
2023-02-22T20:39:52.893Z,144.63
2023-02-22T20:44:55.455Z,138.97
2023-02-22T20:49:58.155Z,142.17
2023-02-22T20:55:14.942Z,131.23
2023-02-22T21:00:18.334Z,124.03
2023-02-22T21:05:21.902Z,122.80
2023-02-22T21:10:24.835Z,117.50
2023-02-22T21:15:27.430Z,144.67
2023-02-22T21:20:30.816Z,134.43
2023-02-22T21:25:36.420Z,98.30
2023-02-22T21:30:39.388Z,113.53
2023-02-22T21:35:43.526Z,104.93
2023-02-22T21:40:48.876Z,108.78
2023-02-22T21:45:51.860Z,96.57
2023-02-22T21:50:54.514Z,102.13
2023-02-22T21:56:14.015Z,94.72
2023-02-22T22:01:17.843Z,80.60
2023-02-22T22:06:21.083Z,86.63
2023-02-22T22:11:30.766Z,81.00
2023-02-22T22:16:36.457Z,77.65
2023-02-22T22:21:53.342Z,66.28
2023-02-22T22:26:56.291Z,72.53
2023-02-22T22:31:59.089Z,69.07
2023-02-22T22:37:03.472Z,54.87
2023-02-22T22:42:06.460Z,55.25
2023-02-22T22:47:19.525Z,43.35
2023-02-22T22:52:27.306Z,33.03
2023-02-22T22:57:48.813Z,33.17
2023-02-22T23:02:51.581Z,27.50
2023-02-22T23:07:56.391Z,22.33
2023-02-22T23:12:59.059Z,16.83
2023-02-22T23:18:03.886Z,17.65
2023-02-22T23:23:14.787Z,14.35
2023-02-22T23:28:19.102Z,13.10
2023-02-22T23:33:21.614Z,14.00
2023-02-22T23:38:30.177Z,12.27
2023-02-22T23:43:55.782Z,12.93
2023-02-22T23:49:01.794Z,15.93
2023-02-22T23:54:09.838Z,11.27
2023-02-22T23:59:20.412Z,12.27
